Time;durP1;ratioP1;P1;durP2;ratioP2;P2;SDS_P1;SDS_P2;PMS_P1;PMS_P2;Temp;Humidity;BMP_temperature;BMP_pressure;BME280_temperature;BME280_humidity;BME280_pressure;Samples;Min_cycle;Max_cycle;Signal;HPM_P1;HPM_P2
2022/01/16 00:04:05;;;;;;;83.00;32.40;;;;;;;-0.78;83.71;101436.64;83293;1322;1003862;-79
2022/01/16 00:04:40;;;;;;;73.20;32.10;;;;;;;-0.74;83.85;101433.99;84695;1327;23905;-79
2022/01/16 00:06:49;;;;;;;68.80;29.60;;;;;;;-0.72;83.73;101440.71;84711;1327;22616;-79
2022/01/16 00:09:02;;;;;;;76.40;31.10;;;;;;;-0.76;83.72;101440.29;84690;1325;22840;-78
2022/01/16 00:11:12;;;;;;;71.00;31.30;;;;;;;-0.76;83.83;101438.91;84701;1326;22725;-78
2022/01/16 00:13:27;;;;;;;70.50;32.10;;;;;;;-0.75;84.01;101444.76;84699;1327;22606;-78
2022/01/16 00:15:36;;;;;;;72.10;32.20;;;;;;;-0.75;83.95;101427.80;84703;1328;22623;-78
2022/01/16 00:17:54;;;;;;;72.60;31.20;;;;;;;-0.72;83.84;101425.99;84700;1327;23960;-78
2022/01/16 00:20:03;;;;;;;72.40;32.80;;;;;;;-0.70;84.02;101427.92;84704;1321;22590;-71
2022/01/16 00:22:15;;;;;;;69.50;29.40;;;;;;;-0.70;83.72;101434.94;84721;1327;22792;-70
2022/01/16 00:24:27;;;;;;;61.70;26.30;;;;;;;-0.68;83.96;101437.25;83981;1327;1003101;-71
2022/01/16 00:26:36;;;;;;;62.20;29.00;;;;;;;-0.64;84.04;101429.95;84612;1330;24107;-70
2022/01/16 00:28:45;;;;;;;67.40;31.10;;;;;;;-0.64;83.81;101421.23;84703;1327;22580;-75
2022/01/16 00:30:54;;;;;;;66.70;29.60;;;;;;;-0.64;83.81;101418.48;84692;1329;22600;-78
2022/01/16 00:33:03;;;;;;;63.60;27.60;;;;;;;-0.67;83.60;101419.95;84710;1328;22619;-78
2022/01/16 00:35:14;;;;;;;71.30;31.70;;;;;;;-0.70;83.70;101424.50;84691;1327;22593;-70
2022/01/16 00:37:24;;;;;;;;;;;;;;;-0.70;83.89;101427.05;84698;1330;22989;-71
2022/01/16 00:39:35;;;;;;;64.00;30.00;;;;;;;-0.71;84.10;101431.15;84721;1327;22595;-71
2022/01/16 00:41:45;;;;;;;59.80;27.70;;;;;;;-0.71;83.92;101436.13;84698;1327;22603;-70
2022/01/16 00:43:58;;;;;;;61.00;25.80;;;;;;;-0.69;83.91;101431.02;84750;1327;22623;-73
2022/01/16 00:46:07;;;;;;;61.40;25.70;;;;;;;-0.67;83.90;101429.55;84695;1328;24387;-70
2022/01/16 00:48:16;;;;;;;62.60;27.50;;;;;;;-0.66;84.01;101423.05;84679;1327;25339;-71
2022/01/16 00:50:25;;;;;;;59.90;29.50;;;;;;;-0.65;83.97;101409.20;84688;1325;22942;-69
2022/01/16 00:52:33;;;;;;;66.60;29.70;;;;;;;-0.61;84.09;101408.27;84697;1325;22621;-70
2022/01/16 00:54:42;;;;;;;68.50;28.30;;;;;;;-0.60;83.95;101424.42;84724;1324;22714;-79
2022/01/16 00:56:51;;;;;;;65.50;29.50;;;;;;;-0.58;84.21;101434.91;84690;1325;22845;-77
2022/01/16 00:59:03;;;;;;;60.50;28.00;;;;;;;-0.60;83.85;101439.33;84708;1325;22612;-69
2022/01/16 01:01:12;;;;;;;69.40;28.00;;;;;;;-0.61;83.97;101454.54;84707;1325;22606;-73
2022/01/16 01:03:25;;;;;;;54.10;24.40;;;;;;;-0.61;84.00;101460.54;84683;1327;22616;-70
2022/01/16 01:05:37;;;;;;;53.20;25.10;;;;;;;-0.61;83.72;101462.25;84703;1330;24262;-70
2022/01/16 01:07:47;;;;;;;57.80;24.60;;;;;;;-0.63;83.76;101459.13;84705;1327;22602;-70
2022/01/16 01:09:56;;;;;;;49.00;23.00;;;;;;;-0.61;83.61;101447.69;84709;1327;23966;-78
2022/01/16 01:12:06;;;;;;;47.00;21.30;;;;;;;-0.59;83.71;101422.38;84720;1327;23331;-77
2022/01/16 01:14:23;;;;;;;47.90;21.90;;;;;;;-0.60;83.63;101398.36;84703;1327;23894;-70
2022/01/16 01:16:49;;;;;;;49.30;24.20;;;;;;;-0.60;83.93;101405.73;84725;1327;22636;-70
2022/01/16 01:18:58;;;;;;;52.30;22.80;;;;;;;-0.61;83.43;101423.19;84730;1327;22715;-70
2022/01/16 01:21:16;;;;;;;51.70;24.00;;;;;;;-0.63;83.36;101414.91;84692;1327;25317;-68
2022/01/16 01:23:24;;;;;;;51.40;23.40;;;;;;;-0.71;83.31;101401.02;84684;1326;22719;-71
2022/01/16 01:25:37;;;;;;;55.90;24.90;;;;;;;-0.73;83.52;101407.11;84705;1322;22586;-70
2022/01/16 01:27:49;;;;;;;49.70;22.90;;;;;;;-0.76;83.41;101421.10;84714;1328;22626;-69
2022/01/16 01:30:01;;;;;;;49.00;25.30;;;;;;;-0.78;83.09;101397.73;84725;1325;22610;-70
2022/01/16 01:32:11;;;;;;;47.40;23.00;;;;;;;-0.82;83.22;101380.70;84709;1328;23927;-70
2022/01/16 01:34:21;;;;;;;;;;;;;;;-0.82;83.13;101390.80;84747;1327;22576;-79
2022/01/16 01:36:30;;;;;;;50.70;23.50;;;;;;;-0.84;83.47;101398.63;84714;1325;23261;-79
2022/01/16 01:38:39;;;;;;;47.00;24.70;;;;;;;-0.83;83.64;101381.37;84718;1329;23059;-70
2022/01/16 01:40:49;;;;;;;57.40;25.30;;;;;;;-0.83;83.57;101404.14;84706;1327;22627;-71
2022/01/16 01:51:01;;;;;;;48.20;24.00;;;;;;;-0.84;83.53;101415.42;84712;1327;24188;-71
2022/01/16 01:53:07;;;;;;;48.80;23.80;;;;;;;-0.82;83.46;101256.16;84723;1330;22886;-78
2022/01/16 01:55:16;;;;;;;48.00;24.00;;;;;;;-0.83;83.32;101264.69;84696;1328;22707;-71
2022/01/16 01:57:25;;;;;;;48.00;21.90;;;;;;;-0.86;83.23;101260.86;84717;1325;25588;-70
2022/01/16 01:59:34;;;;;;;53.00;24.50;;;;;;;-0.85;83.28;101261.21;84704;1321;22600;-77
2022/01/16 02:01:46;;;;;;;46.90;23.60;;;;;;;-0.86;83.36;101260.34;84615;1331;22660;-78
2022/01/16 02:03:58;;;;;;;59.50;25.40;;;;;;;-0.89;83.41;101288.04;84745;1325;24212;-70
2022/01/16 02:06:10;;;;;;;51.70;23.40;;;;;;;-0.94;83.00;101318.39;84704;1327;22927;-70
2022/01/16 02:08:19;;;;;;;57.00;23.70;;;;;;;-1.00;83.22;101326.64;84698;1327;22612;-70
2022/01/16 02:10:32;;;;;;;48.00;22.40;;;;;;;-1.01;83.21;101346.64;84692;1330;22860;-78
2022/01/16 02:12:44;;;;;;;47.90;23.00;;;;;;;-1.00;83.27;101350.44;84701;1327;23043;-79
2022/01/16 02:15:00;;;;;;;41.90;22.90;;;;;;;-0.98;83.42;101346.05;84637;1330;23049;-79
2022/01/16 02:32:13;;;;;;;50.30;24.10;;;;;;;-1.10;82.71;101330.35;84508;1330;23911;-79
2022/01/16 02:34:33;;;;;;;50.50;26.20;;;;;;;-1.11;83.14;101326.38;84687;1327;22615;-78
2022/01/16 02:36:48;;;;;;;48.40;25.70;;;;;;;-1.08;82.92;101341.34;84720;1328;22628;-78
2022/01/16 02:39:01;;;;;;;52.00;24.90;;;;;;;-1.08;83.12;101337.58;84719;1327;22664;-79
2022/01/16 02:41:13;;;;;;;50.20;26.40;;;;;;;-1.07;83.21;101334.35;84692;1327;22728;-78
2022/01/16 02:43:29;;;;;;;51.80;27.00;;;;;;;-1.08;83.02;101346.83;84685;1329;24316;-78
2022/01/16 02:45:45;;;;;;;51.80;25.20;;;;;;;-1.12;82.88;101359.21;84696;1326;25304;-70
2022/01/16 02:47:53;;;;;;;49.90;26.00;;;;;;;-1.12;83.10;101357.35;84708;1327;22586;-70
2022/01/16 02:50:03;;;;;;;50.40;24.50;;;;;;;-1.11;83.06;101345.04;84737;1325;22856;-79
2022/01/16 02:52:13;;;;;;;50.00;25.00;;;;;;;-1.11;82.97;101346.92;84722;1327;24328;-78
2022/01/16 02:54:24;;;;;;;;;;;;;;;-1.14;82.90;101345.98;84731;1327;22659;-71
2022/01/16 02:56:36;;;;;;;47.20;24.10;;;;;;;-1.21;82.69;101354.36;84688;1327;23914;-70
2022/01/16 02:58:47;;;;;;;48.40;23.70;;;;;;;-1.21;82.86;101352.82;84696;1325;22693;-71
2022/01/16 03:00:56;;;;;;;47.20;24.20;;;;;;;-1.19;82.78;101345.67;84696;1327;22624;-72
2022/01/16 03:03:08;;;;;;;45.00;22.20;;;;;;;-1.16;82.95;101338.74;84707;1329;22598;-70
2022/01/16 03:05:18;;;;;;;46.20;23.50;;;;;;;-1.15;82.97;101346.99;84691;1330;22587;-70
2022/01/16 03:07:29;;;;;;;54.60;24.80;;;;;;;-1.14;82.82;101353.69;84692;1329;25481;-70
2022/01/16 03:09:55;;;;;;;49.50;23.80;;;;;;;-1.17;82.62;101342.33;84668;1330;22592;-71
2022/01/16 03:12:09;;;;;;;52.40;23.60;;;;;;;-1.18;82.70;101344.00;84702;1327;24018;-69
2022/01/16 03:14:20;;;;;;;50.70;24.70;;;;;;;-1.18;82.58;101346.88;84708;1328;25294;-78
2022/01/16 03:16:32;;;;;;;47.60;24.20;;;;;;;-1.21;82.47;101345.30;84723;1327;22672;-78
2022/01/16 03:23:34;;;;;;;51.90;26.20;;;;;;;-1.28;82.54;101342.02;84706;1330;23408;-71
2022/01/16 03:25:46;;;;;;;56.50;25.20;;;;;;;-1.29;82.44;101339.11;84689;1327;22628;-69
2022/01/16 03:27:55;;;;;;;53.50;24.60;;;;;;;-1.28;82.55;101336.20;84701;1325;22835;-69
2022/01/16 03:30:05;;;;;;;44.00;22.40;;;;;;;-1.29;82.64;101333.11;84728;1327;22605;-69
2022/01/16 03:32:18;;;;;;;49.90;24.70;;;;;;;-1.29;82.77;101319.22;84728;1327;22562;-70
2022/01/16 03:34:27;;;;;;;57.10;25.20;;;;;;;-1.31;82.45;101310.30;84699;1324;22849;-77
2022/01/16 03:36:39;;;;;;;57.40;26.50;;;;;;;-1.33;82.42;101303.22;84698;1327;25612;-77
2022/01/16 03:38:48;;;;;;;54.40;26.50;;;;;;;-1.35;82.49;101302.14;84678;1327;22827;-70
2022/01/16 03:41:01;;;;;;;52.60;24.80;;;;;;;-1.36;82.47;101302.48;84678;1329;22841;-70
2022/01/16 03:43:14;;;;;;;55.20;25.60;;;;;;;-1.34;82.56;101303.70;84684;1327;22662;-70
2022/01/16 03:45:23;;;;;;;52.40;25.90;;;;;;;-1.31;82.46;101301.23;84675;1326;22593;-71
2022/01/16 03:47:32;;;;;;;50.20;25.40;;;;;;;-1.30;82.56;101295.77;84716;1323;24151;-69
2022/01/16 03:49:41;;;;;;;62.20;28.10;;;;;;;-1.27;82.63;101291.91;84679;1327;22656;-70
2022/01/16 03:51:52;;;;;;;57.90;28.40;;;;;;;-1.26;82.54;101297.57;84686;1327;26499;-70
2022/01/16 03:54:01;;;;;;;63.20;27.50;;;;;;;-1.26;82.54;101302.38;84699;1328;22596;-76
2022/01/16 03:56:10;;;;;;;62.80;28.30;;;;;;;-1.24;82.69;101304.27;84702;1327;24216;-78
2022/01/16 03:58:18;;;;;;;56.40;25.90;;;;;;;-1.25;82.42;101291.77;84664;1325;22627;-78
2022/01/16 04:00:27;;;;;;;54.30;26.90;;;;;;;-1.30;82.25;101291.84;84713;1327;22722;-77
2022/01/16 04:02:36;;;;;;;59.50;27.50;;;;;;;-1.34;82.07;101287.09;84727;1327;24213;-79
2022/01/16 04:04:48;;;;;;;59.70;25.10;;;;;;;-1.38;82.13;101291.12;84715;1327;22596;-71
2022/01/16 04:07:00;;;;;;;57.30;28.20;;;;;;;-1.40;82.19;101284.23;84667;1322;22595;-71
2022/01/16 04:09:09;;;;;;;51.60;25.50;;;;;;;-1.39;82.16;101276.19;84731;1330;22609;-76
2022/01/16 04:11:21;;;;;;;53.90;25.90;;;;;;;-1.38;82.25;101273.99;84700;1327;23078;-78
2022/01/16 04:13:33;;;;;;;58.70;31.10;;;;;;;-1.34;82.25;101272.05;84705;1327;22597;-78
2022/01/16 04:15:45;;;;;;;59.40;28.50;;;;;;;-1.33;82.33;101277.56;84690;1327;22651;-71
2022/01/16 04:17:53;;;;;;;57.70;29.10;;;;;;;-1.29;82.38;101280.38;84686;1327;25454;-71
2022/01/16 04:20:02;;;;;;;59.90;29.10;;;;;;;-1.29;82.13;101276.96;84707;1327;22613;-68
2022/01/16 04:22:11;;;;;;;66.70;30.10;;;;;;;-1.30;82.01;101269.05;84717;1327;22652;-69
2022/01/16 04:24:20;;;;;;;57.00;29.50;;;;;;;-1.33;81.88;101260.27;84722;1327;22658;-78
2022/01/16 04:26:29;;;;;;;63.10;28.70;;;;;;;-1.35;82.07;101264.13;84698;1327;22691;-77
2022/01/16 04:28:38;;;;;;;64.70;27.90;;;;;;;-1.37;82.01;101267.86;84704;1327;22609;-76
2022/01/16 04:30:47;;;;;;;57.70;28.00;;;;;;;-1.39;81.78;101264.56;84706;1326;22696;-78
2022/01/16 04:32:56;;;;;;;60.20;26.60;;;;;;;-1.40;81.78;101256.65;84708;1327;22624;-78
2022/01/16 04:35:06;;;;;;;59.50;28.00;;;;;;;-1.42;81.85;101256.96;84712;1329;25324;-70
2022/01/16 04:37:18;;;;;;;55.00;25.90;;;;;;;-1.40;81.87;101256.67;84700;1329;24186;-70
2022/01/16 04:39:32;;;;;;;58.10;26.60;;;;;;;-1.40;81.89;101254.27;84690;1330;22752;-79
2022/01/16 04:44:10;;;;;;;64.20;27.90;;;;;;;-1.37;81.81;101255.02;84696;1327;22716;-70
2022/01/16 04:46:23;;;;;;;59.30;29.90;;;;;;;-1.39;81.72;101252.94;84671;1324;22655;-69
2022/01/16 04:48:34;;;;;;;57.90;28.30;;;;;;;-1.40;81.55;101248.08;84703;1327;23911;-76
2022/01/16 04:50:43;;;;;;;71.10;30.60;;;;;;;-1.45;81.51;101244.55;84694;1327;22593;-77
2022/01/16 04:52:52;;;;;;;68.10;31.60;;;;;;;-1.49;81.51;101242.56;84682;1328;22661;-77
2022/01/16 04:55:04;;;;;;;61.40;27.10;;;;;;;-1.52;81.22;101243.88;84707;1321;22835;-77
2022/01/16 04:57:16;;;;;;;66.20;30.80;;;;;;;-1.55;81.04;101240.38;84695;1327;24373;-77
2022/01/16 04:59:28;;;;;;;63.40;32.80;;;;;;;-1.56;81.21;101243.61;84374;1325;449988;-76
2022/01/16 05:01:37;;;;;;;62.00;29.50;;;;;;;-1.55;81.20;101243.45;84702;1328;22586;-75
2022/01/16 05:03:46;;;;;;;70.70;32.40;;;;;;;-1.56;81.28;101245.50;84718;1327;22604;-70
2022/01/16 05:05:54;;;;;;;74.20;32.80;;;;;;;-1.54;81.58;101245.17;84686;1327;22596;-70
2022/01/16 05:08:03;;;;;;;66.00;32.20;;;;;;;-1.52;81.38;101241.30;84688;1328;24046;-68
2022/01/16 05:10:15;;;;;;;67.30;31.70;;;;;;;-1.53;81.47;101232.73;84711;1328;24274;-77
2022/01/16 05:12:30;;;;;;;67.50;32.00;;;;;;;-1.54;81.40;101223.45;84707;1328;22717;-78
2022/01/16 05:17:13;;;;;;;69.50;29.00;;;;;;;-1.61;80.83;101214.41;84594;1324;22945;-78
2022/01/16 05:19:25;;;;;;;63.90;29.60;;;;;;;-1.62;80.87;101208.37;84732;1328;22693;-77
2022/01/16 05:21:34;;;;;;;67.20;28.50;;;;;;;-1.62;81.00;101211.45;84720;1327;25615;-79
2022/01/16 05:23:45;;;;;;;55.10;28.40;;;;;;;-1.60;81.10;101216.46;84713;1327;22785;-69
2022/01/16 05:25:54;;;;;;;68.40;30.10;;;;;;;-1.58;81.14;101216.86;84691;1328;22580;-70
2022/01/16 05:28:07;;;;;;;53.70;28.10;;;;;;;-1.57;81.16;101210.23;84724;1327;24819;-69
2022/01/16 05:30:16;;;;;;;71.50;32.60;;;;;;;-1.55;81.03;101202.89;84708;1327;24226;-69
2022/01/16 05:32:28;;;;;;;57.40;29.40;;;;;;;-1.54;81.05;101201.02;84717;1327;24145;-69
2022/01/16 05:34:37;;;;;;;70.30;29.80;;;;;;;-1.56;80.89;101196.03;84749;1328;24417;-78
2022/01/16 05:36:48;;;;;;;64.80;29.60;;;;;;;-1.58;80.82;101189.83;84720;1325;22723;-78
2022/01/16 05:39:00;;;;;;;61.90;29.90;;;;;;;-1.60;80.81;101181.40;84730;1330;23936;-69
2022/01/16 05:41:13;;;;;;;71.20;30.70;;;;;;;-1.62;80.89;101173.98;84716;1325;22593;-68
2022/01/16 05:43:22;;;;;;;66.10;30.00;;;;;;;-1.65;80.75;101171.18;84728;1327;22590;-69
2022/01/16 05:45:33;;;;;;;58.90;29.50;;;;;;;-1.66;80.53;101175.94;84739;1328;22640;-67
2022/01/16 05:47:42;;;;;;;57.00;28.50;;;;;;;-1.66;80.71;101181.59;84730;1327;22625;-68
2022/01/16 05:49:51;;;;;;;65.80;29.90;;;;;;;-1.65;80.84;101176.98;84755;1327;22586;-78
2022/01/16 05:52:01;;;;;;;60.50;30.50;;;;;;;-1.62;80.92;101170.05;84732;1327;22623;-78
2022/01/16 05:54:09;;;;;;;;;;;;;;;-1.61;80.87;101165.30;84730;1325;22582;-78
2022/01/16 05:56:18;;;;;;;68.90;29.80;;;;;;;-1.63;80.76;101168.50;84721;1324;22828;-77
2022/01/16 05:58:27;;;;;;;60.60;30.30;;;;;;;-1.64;80.63;101168.29;84717;1330;23933;-78
2022/01/16 06:00:37;;;;;;;57.10;28.60;;;;;;;-1.68;80.42;101161.88;84756;1327;25253;-79
2022/01/16 06:02:46;;;;;;;53.90;28.20;;;;;;;-1.71;80.28;101164.19;84007;1330;1003894;-79
2022/01/16 06:04:55;;;;;;;58.20;27.50;;;;;;;-1.74;80.31;101164.44;84690;1330;22753;-78
2022/01/16 06:07:05;;;;;;;59.10;29.20;;;;;;;-1.78;80.41;101157.69;84740;1324;22600;-79
2022/01/16 06:09:17;;;;;;;59.20;28.10;;;;;;;-1.80;80.35;101153.36;84725;1327;24280;-69
2022/01/16 06:11:29;;;;;;;55.30;27.50;;;;;;;-1.82;80.31;101149.90;84675;1329;22738;-70
2022/01/16 06:13:37;;;;;;;64.00;30.50;;;;;;;-1.83;80.33;101146.42;84767;1327;25272;-67
2022/01/16 06:15:49;;;;;;;60.10;30.00;;;;;;;-1.83;80.50;101142.18;84731;1325;22828;-69
2022/01/16 06:18:01;;;;;;;64.30;32.10;;;;;;;-1.82;80.57;101140.33;84703;1325;22596;-68
2022/01/16 06:20:14;;;;;;;64.30;29.40;;;;;;;-1.80;80.63;101135.05;84770;1330;24279;-78
2022/01/16 06:22:26;;;;;;;64.00;29.50;;;;;;;-1.79;80.32;101125.33;84724;1327;26490;-79
2022/01/16 06:24:38;;;;;;;65.90;30.10;;;;;;;-1.80;80.42;101122.05;84735;1325;22699;-77
2022/01/16 06:26:49;;;;;;;74.10;33.40;;;;;;;-1.83;80.32;101116.19;84711;1327;24286;-78
2022/01/16 06:28:58;;;;;;;66.20;32.00;;;;;;;-1.84;80.34;101113.24;84753;1328;24424;-69
2022/01/16 06:31:09;;;;;;;71.90;32.20;;;;;;;-1.88;80.16;101116.73;84732;1327;23434;-69
2022/01/16 06:33:21;;;;;;;70.20;32.70;;;;;;;-1.91;80.10;101114.45;84738;1328;22624;-69
2022/01/16 06:35:32;;;;;;;65.20;32.00;;;;;;;-1.93;80.17;101120.19;84726;1327;24329;-70
2022/01/16 06:37:45;;;;;;;60.10;29.10;;;;;;;-1.95;80.23;101108.02;84724;1324;22875;-68
2022/01/16 06:39:53;;;;;;;61.00;27.00;;;;;;;-1.94;80.19;101105.81;84758;1330;22732;-80
2022/01/16 06:42:06;;;;;;;58.40;28.00;;;;;;;-1.93;80.29;101107.37;84703;1323;25630;-80
2022/01/16 06:44:15;;;;;;;59.50;28.00;;;;;;;-1.91;80.15;101110.69;84727;1327;22619;-79
2022/01/16 06:46:23;;;;;;;60.30;28.30;;;;;;;-1.90;80.32;101114.13;84696;1327;22720;-80
2022/01/16 06:48:34;;;;;;;54.60;25.50;;;;;;;-1.88;80.33;101120.66;84726;1327;22678;-73
2022/01/16 06:50:41;;;;;;;;;;;;;;;-1.88;80.18;101119.46;84751;1325;22789;-68
2022/01/16 06:52:53;;;;;;;56.90;26.10;;;;;;;-1.90;80.35;101124.39;84719;1327;24226;-69
2022/01/16 06:55:06;;;;;;;61.10;29.10;;;;;;;-1.90;80.42;101123.35;84730;1328;22657;-79
2022/01/16 06:57:15;;;;;;;60.30;28.10;;;;;;;-1.92;80.19;101122.79;84730;1327;26502;-78
2022/01/16 06:59:24;;;;;;;68.10;29.30;;;;;;;-1.95;79.96;101121.86;84724;1327;23955;-79
2022/01/16 07:01:32;;;;;;;63.00;27.70;;;;;;;-1.98;80.06;101120.42;84721;1330;22624;-79
2022/01/16 07:03:45;;;;;;;59.20;27.30;;;;;;;-1.98;80.24;101118.36;84757;1326;22591;-78
2022/01/16 07:05:55;;;;;;;57.10;25.90;;;;;;;-1.95;80.12;101118.27;84716;1327;22602;-79
2022/01/16 07:08:07;;;;;;;52.70;25.90;;;;;;;-1.92;80.16;101119.18;84702;1328;22550;-79
2022/01/16 07:10:16;;;;;;;53.70;25.50;;;;;;;-1.91;80.26;101121.98;84667;1325;22676;-79
2022/01/16 07:12:28;;;;;;;55.60;24.80;;;;;;;-1.87;80.35;101120.71;84707;1327;22602;-79
2022/01/16 07:14:40;;;;;;;52.90;25.50;;;;;;;-1.83;80.28;101130.02;84747;1327;22619;-69
2022/01/16 07:16:49;;;;;;;54.80;25.50;;;;;;;-1.80;80.31;101131.13;84713;1328;22623;-69
2022/01/16 07:18:58;;;;;;;54.50;24.80;;;;;;;-1.77;80.27;101128.46;84728;1321;22650;-69
2022/01/16 07:21:14;;;;;;;59.70;27.60;;;;;;;-1.76;80.35;101129.52;84713;1330;22731;-69
2022/01/16 07:23:23;;;;;;;49.50;25.00;;;;;;;-1.76;80.23;101134.33;84656;1330;25580;-69
2022/01/16 07:25:33;;;;;;;56.50;26.90;;;;;;;-1.77;80.15;101131.20;84721;1328;23071;-78
2022/01/16 07:27:41;;;;;;;62.30;25.60;;;;;;;-1.77;80.28;101124.02;84733;1321;22597;-79
2022/01/16 07:29:50;;;;;;;55.60;25.20;;;;;;;-1.75;80.57;101122.52;84745;1327;24367;-79
2022/01/16 07:32:00;;;;;;;47.00;22.70;;;;;;;-1.73;80.44;101114.88;84709;1328;23030;-80
2022/01/16 07:34:09;;;;;;;49.90;26.00;;;;;;;-1.69;80.52;101115.31;84727;1330;24276;-70
2022/01/16 07:36:18;;;;;;;48.30;23.60;;;;;;;-1.65;80.59;101114.22;84707;1325;23186;-70
2022/01/16 07:38:30;;;;;;;43.00;21.90;;;;;;;-1.60;80.81;101117.06;84709;1327;22838;-71
2022/01/16 07:40:39;;;;;;;49.50;24.40;;;;;;;-1.53;80.85;101115.34;84711;1328;22756;-71
2022/01/16 07:42:48;;;;;;;45.90;22.50;;;;;;;-1.49;80.54;101116.63;84729;1327;25310;-68
2022/01/16 07:44:57;;;;;;;54.40;24.60;;;;;;;-1.48;80.47;101113.39;84743;1327;22674;-70
2022/01/16 07:47:06;;;;;;;46.10;24.10;;;;;;;-1.48;80.47;101115.10;84694;1330;22698;-70
2022/01/16 07:49:15;;;;;;;52.30;22.90;;;;;;;-1.48;80.48;101110.99;84752;1327;23156;-79
2022/01/16 07:51:24;;;;;;;48.50;22.30;;;;;;;-1.49;80.51;101112.35;84733;1327;22598;-80
2022/01/16 07:53:37;;;;;;;57.30;24.50;;;;;;;-1.47;80.74;101114.64;84714;1327;22596;-72
2022/01/16 07:55:45;;;;;;;47.70;23.40;;;;;;;-1.46;80.72;101110.20;84722;1325;23068;-80
2022/01/16 07:57:58;;;;;;;47.50;22.80;;;;;;;-1.44;80.59;101108.70;84711;1325;22798;-78
2022/01/16 08:00:14;;;;;;;37.10;19.00;;;;;;;-1.42;80.59;101108.25;84711;1327;22586;-69
2022/01/16 08:02:25;;;;;;;42.40;20.20;;;;;;;-1.38;80.61;101105.77;84704;1328;25627;-69
2022/01/16 08:04:34;;;;;;;48.50;20.70;;;;;;;-1.34;80.61;101103.80;84706;1328;22586;-69
2022/01/16 08:06:52;;;;;;;45.60;21.90;;;;;;;-1.29;80.72;101102.70;83962;1329;1004027;-69
2022/01/16 08:09:04;;;;;;;147.00;71.80;;;;;;;-1.25;80.85;101095.60;84694;1328;24439;-78
2022/01/16 08:11:16;;;;;;;69.10;33.30;;;;;;;-1.19;80.77;101093.17;84693;1328;25312;-79
2022/01/16 08:13:26;;;;;;;51.70;24.40;;;;;;;-1.15;80.73;101089.13;84713;1327;22630;-79
2022/01/16 08:15:38;;;;;;;51.80;22.70;;;;;;;-1.15;80.47;101087.27;84727;1324;22699;-68
2022/01/16 08:17:47;;;;;;;48.90;21.90;;;;;;;-1.13;80.39;101088.16;84707;1327;25282;-68
2022/01/16 08:19:59;;;;;;;49.20;22.80;;;;;;;-1.11;80.51;101090.60;84693;1329;22812;-80
2022/01/16 08:22:12;;;;;;;40.20;20.30;;;;;;;-1.11;80.69;101087.52;84702;1327;22630;-80
2022/01/16 08:24:24;;;;;;;42.80;20.80;;;;;;;-1.13;80.39;101082.35;84703;1324;24324;-78
2022/01/16 08:26:36;;;;;;;50.40;21.70;;;;;;;-1.12;80.42;101078.95;84720;1327;23118;-79
2022/01/16 08:28:47;;;;;;;46.40;20.20;;;;;;;-1.08;80.38;101085.71;84706;1327;23862;-77
2022/01/16 08:30:59;;;;;;;38.10;18.70;;;;;;;-1.03;80.28;101082.21;84728;1327;22609;-69
2022/01/16 08:33:09;;;;;;;50.50;20.00;;;;;;;-1.01;80.02;101073.52;84715;1330;22606;-69
2022/01/16 08:35:20;;;;;;;;;;;;;;;-0.98;80.15;101065.70;84750;1331;23878;-79
2022/01/16 08:37:30;;;;;;;40.70;18.80;;;;;;;-0.97;80.21;101059.05;84709;1327;25587;-79
2022/01/16 08:39:39;;;;;;;;;;;;;;;-0.93;80.38;101060.48;84684;1329;22585;-79
2022/01/16 08:41:48;;;;;;;45.40;20.60;;;;;;;-0.93;80.40;101059.13;84702;1327;23068;-79
2022/01/16 08:43:57;;;;;;;44.50;21.30;;;;;;;-0.91;80.25;101057.44;84692;1327;22592;-70
2022/01/16 08:46:06;;;;;;;47.70;19.70;;;;;;;-0.90;80.25;101058.98;84731;1329;23524;-71
2022/01/16 08:48:15;;;;;;;52.10;22.00;;;;;;;-0.89;80.19;101062.08;84714;1324;22750;-68
2022/01/16 08:50:24;;;;;;;43.40;18.60;;;;;;;-0.88;80.10;101060.94;84703;1327;22717;-68
2022/01/16 08:52:33;;;;;;;48.40;19.10;;;;;;;-0.84;80.29;101051.25;84695;1329;26512;-68
2022/01/16 08:54:43;;;;;;;32.40;18.50;;;;;;;-0.80;80.37;101042.73;84751;1327;24305;-68
2022/01/16 08:56:56;;;;;;;34.70;17.60;;;;;;;-0.76;80.18;101040.94;84619;1325;25598;-69
2022/01/16 08:59:08;;;;;;;42.80;19.90;;;;;;;-0.70;80.46;101039.00;84739;1330;22621;-84
2022/01/16 09:01:20;;;;;;;45.10;18.30;;;;;;;-0.62;80.54;101030.74;84764;1322;22652;-83
2022/01/16 09:03:32;;;;;;;47.00;21.50;;;;;;;-0.55;80.41;101025.91;84720;1327;24322;-85
2022/01/16 09:05:42;;;;;;;42.40;19.10;;;;;;;-0.49;80.42;101024.46;84704;1327;22585;-69
2022/01/16 09:07:53;;;;;;;46.20;20.00;;;;;;;-0.47;79.87;101020.89;84695;1327;22602;-70
2022/01/16 09:10:07;;;;;;;34.80;17.20;;;;;;;-0.48;80.03;101017.11;84731;1329;24250;-69
2022/01/16 09:12:16;;;;;;;38.50;19.30;;;;;;;-0.50;79.96;101006.63;84715;1327;25451;-68
2022/01/16 09:14:25;;;;;;;44.60;19.40;;;;;;;-0.50;79.78;101006.10;84652;1330;22645;-86
2022/01/16 09:16:34;;;;;;;38.50;17.30;;;;;;;-0.50;79.67;101006.27;84741;1327;22622;-84
2022/01/16 09:18:47;;;;;;;42.80;18.60;;;;;;;-0.50;79.69;101004.23;84784;1328;22951;-70
2022/01/16 09:20:57;;;;;;;37.60;17.20;;;;;;;-0.48;79.42;101004.95;84710;1327;23927;-69
2022/01/16 09:23:09;;;;;;;33.50;17.30;;;;;;;-0.44;79.66;101001.41;84708;1327;22594;-83
2022/01/16 09:25:20;;;;;;;36.30;18.30;;;;;;;-0.42;79.43;100995.11;84716;1327;25319;-69
2022/01/16 09:27:34;;;;;;;33.00;18.60;;;;;;;-0.37;80.00;100990.57;84715;1327;22657;-69
2022/01/16 09:29:43;;;;;;;36.90;18.20;;;;;;;-0.29;80.00;100986.23;84706;1329;22652;-69
2022/01/16 09:31:52;;;;;;;31.50;17.10;;;;;;;-0.22;79.97;100978.44;84705;1325;23186;-73
2022/01/16 09:34:05;;;;;;;40.80;18.60;;;;;;;-0.19;79.84;100975.42;84733;1326;22690;-69
2022/01/16 09:36:14;;;;;;;35.50;17.00;;;;;;;-0.16;79.69;100977.34;84709;1327;24225;-69
2022/01/16 09:38:26;;;;;;;40.20;19.10;;;;;;;-0.16;79.58;100968.09;84724;1321;24342;-68
2022/01/16 09:40:35;;;;;;;32.30;17.70;;;;;;;-0.15;79.46;100964.33;84697;1327;24264;-69
2022/01/16 09:42:49;;;;;;;39.20;17.30;;;;;;;-0.14;79.41;100965.04;84765;1327;24235;-78
2022/01/16 09:45:00;;;;;;;42.00;17.10;;;;;;;-0.13;79.36;100968.30;84698;1329;23730;-77
2022/01/16 09:47:10;;;;;;;39.80;16.10;;;;;;;-0.15;79.14;100966.55;84714;1327;22947;-77
2022/01/16 09:49:19;;;;;;;39.10;16.30;;;;;;;-0.15;78.96;100960.54;84024;1324;1003431;-68
2022/01/16 09:51:31;;;;;;;40.00;17.30;;;;;;;-0.12;79.28;100955.80;84722;1327;22594;-69
2022/01/16 09:53:46;;;;;;;40.40;16.50;;;;;;;-0.09;79.33;100957.23;84750;1327;22767;-68
2022/01/16 09:55:56;;;;;;;37.70;17.30;;;;;;;-0.06;79.41;100946.80;84712;1327;24293;-68
2022/01/16 09:58:09;;;;;;;28.60;16.60;;;;;;;-0.01;79.28;100949.61;84728;1327;22700;-69
2022/01/16 10:00:24;;;;;;;38.30;17.70;;;;;;;0.00;79.24;100939.19;84732;1319;22600;-69
2022/01/16 10:02:33;;;;;;;38.10;19.50;;;;;;;-0.01;79.25;100935.56;84739;1329;22598;-70
2022/01/16 10:04:46;;;;;;;36.40;18.10;;;;;;;0.01;79.22;100929.08;84639;1329;22616;-68
2022/01/16 10:07:01;;;;;;;40.40;18.60;;;;;;;0.02;79.38;100931.48;84726;1324;22611;-78
2022/01/16 10:09:21;;;;;;;38.60;17.60;;;;;;;0.03;78.99;100924.97;84715;1327;22591;-76
2022/01/16 10:11:36;;;;;;;38.00;17.90;;;;;;;0.04;79.46;100920.17;84729;1327;23913;-75
2022/01/16 10:13:58;;;;;;;45.70;17.10;;;;;;;0.05;78.98;100902.38;84716;1327;22602;-76
2022/01/16 10:16:09;;;;;;;31.20;17.00;;;;;;;0.09;79.29;100887.14;84738;1327;23977;-77
2022/01/16 10:18:18;;;;;;;34.00;17.70;;;;;;;0.16;78.81;100877.29;84734;1327;22608;-68
2022/01/16 10:20:28;;;;;;;33.50;16.90;;;;;;;0.23;78.96;100881.48;84716;1327;24147;-68
2022/01/16 10:22:44;;;;;;;37.60;17.70;;;;;;;0.29;79.12;100880.36;84603;1330;22617;-69
2022/01/16 10:24:53;;;;;;;40.50;18.10;;;;;;;0.35;78.89;100880.27;84731;1327;22597;-69
2022/01/16 10:27:28;;;;;;;38.70;18.40;;;;;;;0.39;78.85;100876.52;84739;1327;22876;-69
2022/01/16 10:29:39;;;;;;;40.60;20.30;;;;;;;0.39;78.57;100878.75;84550;1330;23921;-68
2022/01/16 10:31:46;;;;;;;;;;;;;;;0.40;78.70;100885.45;84733;1327;25255;-68